sensor_id;sensor_type;location;lat;lon;timestamp;P1;durP1;ratioP1;P2;durP2;ratioP2
67041;SDS011;53949;47.790;18.750;2022-07-23T01:23:28;10.15;;;4.32;;
67041;SDS011;53949;47.790;18.750;2022-07-23T01:26:32;6.43;;;4.28;;
67041;SDS011;53949;47.790;18.750;2022-07-23T01:29:35;5.03;;;3.90;;
67041;SDS011;53949;47.790;18.750;2022-07-23T01:32:42;6.47;;;4.03;;
67041;SDS011;53949;47.790;18.750;2022-07-23T01:35:46;4.78;;;3.97;;
67041;SDS011;53949;47.790;18.750;2022-07-23T01:38:51;6.20;;;4.65;;
67041;SDS011;53949;47.790;18.750;2022-07-23T01:41:55;5.25;;;4.18;;
67041;SDS011;53949;47.790;18.750;2022-07-23T01:45:00;7.62;;;4.70;;
67041;SDS011;53949;47.790;18.750;2022-07-23T01:48:03;5.72;;;4.40;;
67041;SDS011;53949;47.790;18.750;2022-07-23T01:51:13;5.57;;;3.92;;
67041;SDS011;53949;47.790;18.750;2022-07-23T01:54:16;5.18;;;4.25;;
67041;SDS011;53949;47.790;18.750;2022-07-23T01:57:21;4.57;;;4.18;;
67041;SDS011;53949;47.790;18.750;2022-07-23T02:00:24;4.87;;;4.15;;
67041;SDS011;53949;47.790;18.750;2022-07-23T02:03:29;9.35;;;4.50;;
67041;SDS011;53949;47.790;18.750;2022-07-23T02:06:32;6.30;;;4.50;;
67041;SDS011;53949;47.790;18.750;2022-07-23T02:09:35;6.55;;;4.50;;
67041;SDS011;53949;47.790;18.750;2022-07-23T02:12:38;5.65;;;4.70;;
67041;SDS011;53949;47.790;18.750;2022-07-23T02:15:45;6.93;;;4.53;;
67041;SDS011;53949;47.790;18.750;2022-07-23T02:18:49;5.78;;;4.78;;
67041;SDS011;53949;47.790;18.750;2022-07-23T02:21:53;4.62;;;4.22;;
67041;SDS011;53949;47.790;18.750;2022-07-23T02:24:56;5.87;;;4.72;;
67041;SDS011;53949;47.790;18.750;2022-07-23T02:28:00;9.05;;;4.90;;
67041;SDS011;53949;47.790;18.750;2022-07-23T02:31:03;9.25;;;4.70;;
67041;SDS011;53949;47.790;18.750;2022-07-23T02:34:08;9.73;;;4.90;;
67041;SDS011;53949;47.790;18.750;2022-07-23T02:37:14;8.27;;;5.03;;
67041;SDS011;53949;47.790;18.750;2022-07-23T02:40:17;11.98;;;4.80;;
67041;SDS011;53949;47.790;18.750;2022-07-23T02:43:22;8.82;;;4.72;;
67041;SDS011;53949;47.790;18.750;2022-07-23T02:46:25;6.65;;;4.68;;
67041;SDS011;53949;47.790;18.750;2022-07-23T02:49:29;6.07;;;4.40;;
67041;SDS011;53949;47.790;18.750;2022-07-23T02:52:33;6.78;;;4.53;;
67041;SDS011;53949;47.790;18.750;2022-07-23T02:55:38;9.00;;;4.93;;
67041;SDS011;53949;47.790;18.750;2022-07-23T02:58:41;5.35;;;4.82;;
67041;SDS011;53949;47.790;18.750;2022-07-23T03:01:44;6.47;;;4.57;;
67041;SDS011;53949;47.790;18.750;2022-07-23T03:04:48;8.07;;;4.87;;
67041;SDS011;53949;47.790;18.750;2022-07-23T03:07:52;8.65;;;5.70;;
67041;SDS011;53949;47.790;18.750;2022-07-23T03:10:56;5.35;;;4.47;;
67041;SDS011;53949;47.790;18.750;2022-07-23T03:14:00;6.10;;;4.55;;
67041;SDS011;53949;47.790;18.750;2022-07-23T03:17:05;6.05;;;4.40;;
67041;SDS011;53949;47.790;18.750;2022-07-23T03:20:09;9.35;;;4.30;;
67041;SDS011;53949;47.790;18.750;2022-07-23T03:23:13;5.82;;;4.50;;
67041;SDS011;53949;47.790;18.750;2022-07-23T03:26:16;4.82;;;4.43;;
67041;SDS011;53949;47.790;18.750;2022-07-23T03:29:21;5.18;;;4.60;;
67041;SDS011;53949;47.790;18.750;2022-07-23T03:32:24;5.35;;;4.07;;
67041;SDS011;53949;47.790;18.750;2022-07-23T03:35:28;4.87;;;4.35;;
67041;SDS011;53949;47.790;18.750;2022-07-23T03:38:32;6.25;;;4.20;;
67041;SDS011;53949;47.790;18.750;2022-07-23T03:41:35;5.72;;;4.60;;
67041;SDS011;53949;47.790;18.750;2022-07-23T03:44:39;6.28;;;3.92;;
67041;SDS011;53949;47.790;18.750;2022-07-23T03:47:44;6.18;;;4.78;;
67041;SDS011;53949;47.790;18.750;2022-07-23T03:50:50;7.05;;;4.82;;
67041;SDS011;53949;47.790;18.750;2022-07-23T03:53:53;9.98;;;4.80;;
67041;SDS011;53949;47.790;18.750;2022-07-23T03:56:57;5.80;;;4.43;;
67041;SDS011;53949;47.790;18.750;2022-07-23T04:00:00;6.95;;;4.20;;
67041;SDS011;53949;47.790;18.750;2022-07-23T04:03:03;6.97;;;4.40;;
67041;SDS011;53949;47.790;18.750;2022-07-23T04:06:07;8.40;;;4.70;;
67041;SDS011;53949;47.790;18.750;2022-07-23T04:09:10;4.95;;;4.43;;
67041;SDS011;53949;47.790;18.750;2022-07-23T04:12:14;8.48;;;4.57;;
67041;SDS011;53949;47.790;18.750;2022-07-23T04:15:17;8.15;;;4.80;;
67041;SDS011;53949;47.790;18.750;2022-07-23T04:18:21;7.45;;;4.97;;
67041;SDS011;53949;47.790;18.750;2022-07-23T04:21:26;7.80;;;4.45;;
67041;SDS011;53949;47.790;18.750;2022-07-23T04:24:31;5.22;;;4.75;;
67041;SDS011;53949;47.790;18.750;2022-07-23T04:27:33;6.85;;;4.50;;
67041;SDS011;53949;47.790;18.750;2022-07-23T04:30:37;6.45;;;5.20;;
67041;SDS011;53949;47.790;18.750;2022-07-23T04:33:40;5.82;;;5.18;;
67041;SDS011;53949;47.790;18.750;2022-07-23T04:36:44;10.18;;;4.85;;
67041;SDS011;53949;47.790;18.750;2022-07-23T04:39:47;5.50;;;4.35;;
67041;SDS011;53949;47.790;18.750;2022-07-23T04:42:50;6.35;;;4.53;;
67041;SDS011;53949;47.790;18.750;2022-07-23T04:45:54;7.87;;;4.50;;
67041;SDS011;53949;47.790;18.750;2022-07-23T04:48:58;6.50;;;4.57;;
67041;SDS011;53949;47.790;18.750;2022-07-23T04:52:02;6.00;;;3.85;;
67041;SDS011;53949;47.790;18.750;2022-07-23T04:55:07;4.45;;;4.10;;
67041;SDS011;53949;47.790;18.750;2022-07-23T04:58:10;6.17;;;4.60;;
67041;SDS011;53949;47.790;18.750;2022-07-23T05:01:14;4.82;;;4.32;;
67041;SDS011;53949;47.790;18.750;2022-07-23T05:04:17;9.73;;;5.30;;
67041;SDS011;53949;47.790;18.750;2022-07-23T05:07:21;5.28;;;4.47;;
67041;SDS011;53949;47.790;18.750;2022-07-23T05:10:25;8.23;;;4.87;;
67041;SDS011;53949;47.790;18.750;2022-07-23T05:13:28;5.12;;;4.62;;
67041;SDS011;53949;47.790;18.750;2022-07-23T05:16:31;6.30;;;4.62;;
67041;SDS011;53949;47.790;18.750;2022-07-23T05:19:36;6.97;;;4.70;;
67041;SDS011;53949;47.790;18.750;2022-07-23T05:22:40;9.27;;;5.57;;
67041;SDS011;53949;47.790;18.750;2022-07-23T05:25:47;6.72;;;5.60;;
67041;SDS011;53949;47.790;18.750;2022-07-23T05:28:51;9.43;;;5.50;;
67041;SDS011;53949;47.790;18.750;2022-07-23T05:31:56;5.93;;;5.15;;
67041;SDS011;53949;47.790;18.750;2022-07-23T05:35:00;8.50;;;5.12;;
67041;SDS011;53949;47.790;18.750;2022-07-23T05:38:06;6.72;;;4.57;;
67041;SDS011;53949;47.790;18.750;2022-07-23T05:41:10;8.60;;;5.32;;
67041;SDS011;53949;47.790;18.750;2022-07-23T05:44:16;10.63;;;5.28;;
67041;SDS011;53949;47.790;18.750;2022-07-23T05:47:19;6.65;;;5.03;;
67041;SDS011;53949;47.790;18.750;2022-07-23T05:50:22;6.40;;;5.07;;
67041;SDS011;53949;47.790;18.750;2022-07-23T05:53:26;7.37;;;5.25;;
67041;SDS011;53949;47.790;18.750;2022-07-23T05:56:33;6.57;;;4.82;;
67041;SDS011;53949;47.790;18.750;2022-07-23T06:02:41;6.45;;;4.85;;
67041;SDS011;53949;47.790;18.750;2022-07-23T06:05:46;7.15;;;5.00;;
67041;SDS011;53949;47.790;18.750;2022-07-23T06:08:49;5.93;;;5.12;;
67041;SDS011;53949;47.790;18.750;2022-07-23T06:11:56;9.15;;;4.60;;
67041;SDS011;53949;47.790;18.750;2022-07-23T06:14:59;5.57;;;5.03;;
67041;SDS011;53949;47.790;18.750;2022-07-23T06:18:02;13.88;;;5.28;;
67041;SDS011;53949;47.790;18.750;2022-07-23T06:21:05;7.82;;;5.07;;
67041;SDS011;53949;47.790;18.750;2022-07-23T06:24:33;11.52;;;4.85;;
67041;SDS011;53949;47.790;18.750;2022-07-23T06:27:38;10.82;;;4.85;;
67041;SDS011;53949;47.790;18.750;2022-07-23T06:30:42;9.48;;;4.95;;
67041;SDS011;53949;47.790;18.750;2022-07-23T06:33:47;9.88;;;4.78;;
67041;SDS011;53949;47.790;18.750;2022-07-23T06:36:50;8.27;;;5.00;;
67041;SDS011;53949;47.790;18.750;2022-07-23T06:39:54;8.18;;;5.05;;
67041;SDS011;53949;47.790;18.750;2022-07-23T06:43:00;8.25;;;4.30;;
67041;SDS011;53949;47.790;18.750;2022-07-23T06:46:03;8.02;;;4.25;;
67041;SDS011;53949;47.790;18.750;2022-07-23T06:49:08;7.37;;;4.72;;
67041;SDS011;53949;47.790;18.750;2022-07-23T06:52:11;9.55;;;4.72;;
67041;SDS011;53949;47.790;18.750;2022-07-23T06:55:14;7.40;;;4.50;;
67041;SDS011;53949;47.790;18.750;2022-07-23T06:58:19;9.18;;;4.57;;
67041;SDS011;53949;47.790;18.750;2022-07-23T07:01:23;13.18;;;4.90;;
67041;SDS011;53949;47.790;18.750;2022-07-23T07:04:27;7.20;;;4.00;;
67041;SDS011;53949;47.790;18.750;2022-07-23T07:20:14;5.05;;;3.70;;
67041;SDS011;53949;47.790;18.750;2022-07-23T07:23:19;8.10;;;4.03;;
67041;SDS011;53949;47.790;18.750;2022-07-23T07:26:27;9.00;;;3.35;;
67041;SDS011;53949;47.790;18.750;2022-07-23T07:29:32;7.18;;;3.80;;
67041;SDS011;53949;47.790;18.750;2022-07-23T07:32:35;5.53;;;3.75;;
67041;SDS011;53949;47.790;18.750;2022-07-23T07:35:59;8.05;;;3.85;;
67041;SDS011;53949;47.790;18.750;2022-07-23T07:42:08;8.88;;;3.65;;
67041;SDS011;53949;47.790;18.750;2022-07-23T07:45:14;4.60;;;3.92;;
67041;SDS011;53949;47.790;18.750;2022-07-23T07:48:18;5.22;;;3.47;;
67041;SDS011;53949;47.790;18.750;2022-07-23T07:51:23;5.40;;;3.80;;
67041;SDS011;53949;47.790;18.750;2022-07-23T07:54:28;6.35;;;3.60;;
67041;SDS011;53949;47.790;18.750;2022-07-23T07:57:32;6.53;;;3.83;;
67041;SDS011;53949;47.790;18.750;2022-07-23T08:00:35;6.28;;;4.10;;
67041;SDS011;53949;47.790;18.750;2022-07-23T08:03:40;8.27;;;4.03;;
67041;SDS011;53949;47.790;18.750;2022-07-23T08:06:44;4.45;;;3.80;;
67041;SDS011;53949;47.790;18.750;2022-07-23T08:09:47;6.43;;;4.03;;
67041;SDS011;53949;47.790;18.750;2022-07-23T08:12:53;6.27;;;4.10;;
67041;SDS011;53949;47.790;18.750;2022-07-23T08:16:00;5.85;;;4.03;;
67041;SDS011;53949;47.790;18.750;2022-07-23T08:22:23;7.30;;;3.85;;
67041;SDS011;53949;47.790;18.750;2022-07-23T08:28:31;4.10;;;3.65;;
67041;SDS011;53949;47.790;18.750;2022-07-23T08:39:45;6.93;;;4.12;;
67041;SDS011;53949;47.790;18.750;2022-07-23T08:42:51;8.93;;;3.70;;
67041;SDS011;53949;47.790;18.750;2022-07-23T08:45:55;6.53;;;4.35;;
67041;SDS011;53949;47.790;18.750;2022-07-23T08:49:04;5.05;;;4.10;;
67041;SDS011;53949;47.790;18.750;2022-07-23T08:55:11;6.05;;;3.97;;
67041;SDS011;53949;47.790;18.750;2022-07-23T08:58:23;5.03;;;4.03;;
67041;SDS011;53949;47.790;18.750;2022-07-23T09:01:30;7.37;;;4.28;;
67041;SDS011;53949;47.790;18.750;2022-07-23T09:04:37;7.25;;;4.12;;
67041;SDS011;53949;47.790;18.750;2022-07-23T09:19:27;6.05;;;3.75;;
67041;SDS011;53949;47.790;18.750;2022-07-23T09:22:30;3.75;;;3.45;;
67041;SDS011;53949;47.790;18.750;2022-07-23T09:29:59;9.10;;;4.37;;
67041;SDS011;53949;47.790;18.750;2022-07-23T09:33:03;5.25;;;3.87;;
67041;SDS011;53949;47.790;18.750;2022-07-23T09:36:08;5.28;;;3.85;;
67041;SDS011;53949;47.790;18.750;2022-07-23T09:39:12;4.40;;;4.00;;
67041;SDS011;53949;47.790;18.750;2022-07-23T09:45:24;8.10;;;3.80;;
67041;SDS011;53949;47.790;18.750;2022-07-23T09:48:30;6.68;;;3.87;;
67041;SDS011;53949;47.790;18.750;2022-07-23T09:51:58;5.03;;;4.37;;
67041;SDS011;53949;47.790;18.750;2022-07-23T09:55:04;5.70;;;3.87;;
67041;SDS011;53949;47.790;18.750;2022-07-23T09:58:08;5.87;;;4.55;;
67041;SDS011;53949;47.790;18.750;2022-07-23T10:01:18;5.80;;;4.37;;
67041;SDS011;53949;47.790;18.750;2022-07-23T10:04:23;4.37;;;4.07;;
67041;SDS011;53949;47.790;18.750;2022-07-23T10:07:34;5.97;;;3.78;;
67041;SDS011;53949;47.790;18.750;2022-07-23T10:10:46;8.90;;;4.15;;
67041;SDS011;53949;47.790;18.750;2022-07-23T10:13:50;4.60;;;4.00;;
67041;SDS011;53949;47.790;18.750;2022-07-23T10:17:10;7.30;;;4.18;;
67041;SDS011;53949;47.790;18.750;2022-07-23T10:20:13;7.65;;;4.07;;
67041;SDS011;53949;47.790;18.750;2022-07-23T10:23:37;4.43;;;3.97;;
67041;SDS011;53949;47.790;18.750;2022-07-23T10:26:52;4.85;;;4.20;;
67041;SDS011;53949;47.790;18.750;2022-07-23T10:33:32;7.18;;;3.83;;
67041;SDS011;53949;47.790;18.750;2022-07-23T10:36:51;8.20;;;4.10;;
67041;SDS011;53949;47.790;18.750;2022-07-23T10:40:13;10.10;;;4.28;;
67041;SDS011;53949;47.790;18.750;2022-07-23T10:43:21;6.95;;;3.83;;
67041;SDS011;53949;47.790;18.750;2022-07-23T10:46:24;4.45;;;4.05;;
67041;SDS011;53949;47.790;18.750;2022-07-23T10:49:36;4.57;;;4.18;;
67041;SDS011;53949;47.790;18.750;2022-07-23T10:52:40;13.45;;;4.50;;
67041;SDS011;53949;47.790;18.750;2022-07-23T10:55:49;5.05;;;4.50;;
67041;SDS011;53949;47.790;18.750;2022-07-23T10:59:10;6.55;;;4.40;;
67041;SDS011;53949;47.790;18.750;2022-07-23T11:02:20;12.07;;;4.47;;
67041;SDS011;53949;47.790;18.750;2022-07-23T11:05:42;5.25;;;4.30;;
67041;SDS011;53949;47.790;18.750;2022-07-23T11:08:50;6.55;;;4.05;;
67041;SDS011;53949;47.790;18.750;2022-07-23T11:12:35;4.70;;;4.30;;
67041;SDS011;53949;47.790;18.750;2022-07-23T11:16:03;4.90;;;4.30;;
67041;SDS011;53949;47.790;18.750;2022-07-23T11:19:04;5.72;;;4.22;;
67041;SDS011;53949;47.790;18.750;2022-07-23T11:22:09;7.47;;;4.32;;
67041;SDS011;53949;47.790;18.750;2022-07-23T11:25:43;11.75;;;4.68;;
67041;SDS011;53949;47.790;18.750;2022-07-23T11:28:48;5.22;;;4.72;;
67041;SDS011;53949;47.790;18.750;2022-07-23T11:31:52;6.05;;;4.20;;
67041;SDS011;53949;47.790;18.750;2022-07-23T11:34:59;13.35;;;4.47;;
67041;SDS011;53949;47.790;18.750;2022-07-23T11:38:11;7.12;;;4.55;;
67041;SDS011;53949;47.790;18.750;2022-07-23T11:41:17;4.62;;;4.18;;
67041;SDS011;53949;47.790;18.750;2022-07-23T12:57:06;9.18;;;4.80;;
67041;SDS011;53949;47.790;18.750;2022-07-23T13:00:10;5.50;;;4.35;;
67041;SDS011;53949;47.790;18.750;2022-07-23T13:03:22;7.28;;;4.72;;
67041;SDS011;53949;47.790;18.750;2022-07-23T13:18:40;8.50;;;4.70;;
67041;SDS011;53949;47.790;18.750;2022-07-23T13:21:44;5.50;;;4.47;;
67041;SDS011;53949;47.790;18.750;2022-07-23T13:24:51;4.97;;;4.50;;
67041;SDS011;53949;47.790;18.750;2022-07-23T13:27:59;8.75;;;4.60;;
67041;SDS011;53949;47.790;18.750;2022-07-23T13:31:14;6.62;;;4.70;;
67041;SDS011;53949;47.790;18.750;2022-07-23T13:34:24;8.05;;;4.87;;
67041;SDS011;53949;47.790;18.750;2022-07-23T13:37:32;7.00;;;4.35;;
67041;SDS011;53949;47.790;18.750;2022-07-23T13:40:40;6.80;;;4.82;;
67041;SDS011;53949;47.790;18.750;2022-07-23T13:43:45;6.35;;;5.00;;
67041;SDS011;53949;47.790;18.750;2022-07-23T13:46:52;4.90;;;4.47;;
67041;SDS011;53949;47.790;18.750;2022-07-23T13:49:57;7.28;;;4.43;;
67041;SDS011;53949;47.790;18.750;2022-07-23T13:53:32;5.47;;;4.50;;
67041;SDS011;53949;47.790;18.750;2022-07-23T14:17:21;7.12;;;5.47;;
67041;SDS011;53949;47.790;18.750;2022-07-23T14:21:15;6.97;;;5.60;;
67041;SDS011;53949;47.790;18.750;2022-07-23T14:29:52;7.87;;;5.68;;
67041;SDS011;53949;47.790;18.750;2022-07-23T14:33:01;6.40;;;5.82;;
67041;SDS011;53949;47.790;18.750;2022-07-23T14:36:53;8.23;;;7.43;;
67041;SDS011;53949;47.790;18.750;2022-07-23T14:40:29;7.95;;;6.78;;
67041;SDS011;53949;47.790;18.750;2022-07-23T14:48:09;9.18;;;8.35;;
67041;SDS011;53949;47.790;18.750;2022-07-23T14:51:11;9.95;;;8.95;;
67041;SDS011;53949;47.790;18.750;2022-07-23T14:57:22;9.68;;;8.88;;
67041;SDS011;53949;47.790;18.750;2022-07-23T15:00:28;11.05;;;8.60;;
67041;SDS011;53949;47.790;18.750;2022-07-23T15:03:32;12.95;;;9.05;;
67041;SDS011;53949;47.790;18.750;2022-07-23T15:06:42;13.40;;;8.82;;
67041;SDS011;53949;47.790;18.750;2022-07-23T15:12:49;9.77;;;8.88;;
67041;SDS011;53949;47.790;18.750;2022-07-23T15:18:58;8.52;;;7.60;;
67041;SDS011;53949;47.790;18.750;2022-07-23T15:22:02;8.18;;;7.40;;
67041;SDS011;53949;47.790;18.750;2022-07-23T15:25:08;8.35;;;7.32;;
67041;SDS011;53949;47.790;18.750;2022-07-23T15:28:14;8.60;;;6.75;;
67041;SDS011;53949;47.790;18.750;2022-07-23T15:31:23;9.63;;;6.57;;
67041;SDS011;53949;47.790;18.750;2022-07-23T15:34:30;11.75;;;6.68;;
67041;SDS011;53949;47.790;18.750;2022-07-23T15:37:36;8.30;;;7.22;;
67041;SDS011;53949;47.790;18.750;2022-07-23T15:43:44;14.25;;;8.07;;
67041;SDS011;53949;47.790;18.750;2022-07-23T15:46:47;16.35;;;8.10;;
67041;SDS011;53949;47.790;18.750;2022-07-23T15:49:51;11.38;;;7.50;;
67041;SDS011;53949;47.790;18.750;2022-07-23T15:52:54;11.10;;;7.05;;
67041;SDS011;53949;47.790;18.750;2022-07-23T15:55:59;7.18;;;6.57;;
67041;SDS011;53949;47.790;18.750;2022-07-23T15:59:04;11.52;;;7.40;;
67041;SDS011;53949;47.790;18.750;2022-07-23T16:02:09;15.05;;;8.20;;
67041;SDS011;53949;47.790;18.750;2022-07-23T16:05:15;12.75;;;6.95;;
67041;SDS011;53949;47.790;18.750;2022-07-23T16:08:37;10.13;;;7.47;;
67041;SDS011;53949;47.790;18.750;2022-07-23T16:11:40;8.35;;;7.05;;
67041;SDS011;53949;47.790;18.750;2022-07-23T16:14:43;10.85;;;8.43;;
67041;SDS011;53949;47.790;18.750;2022-07-23T16:20:51;10.77;;;7.43;;
67041;SDS011;53949;47.790;18.750;2022-07-23T16:23:55;8.30;;;7.45;;
67041;SDS011;53949;47.790;18.750;2022-07-23T16:26:58;14.38;;;7.55;;
67041;SDS011;53949;47.790;18.750;2022-07-23T16:30:08;10.70;;;7.90;;
67041;SDS011;53949;47.790;18.750;2022-07-23T16:33:16;12.02;;;7.07;;
67041;SDS011;53949;47.790;18.750;2022-07-23T16:36:21;12.02;;;6.30;;
67041;SDS011;53949;47.790;18.750;2022-07-23T16:39:28;9.77;;;5.70;;
67041;SDS011;53949;47.790;18.750;2022-07-23T16:42:32;6.95;;;6.25;;
67041;SDS011;53949;47.790;18.750;2022-07-23T16:45:35;10.57;;;7.18;;
67041;SDS011;53949;47.790;18.750;2022-07-23T16:48:39;10.30;;;7.30;;
67041;SDS011;53949;47.790;18.750;2022-07-23T16:51:42;9.20;;;7.87;;
67041;SDS011;53949;47.790;18.750;2022-07-23T16:54:46;9.52;;;7.03;;
67041;SDS011;53949;47.790;18.750;2022-07-23T16:57:48;8.75;;;7.40;;
67041;SDS011;53949;47.790;18.750;2022-07-23T17:01:23;11.12;;;7.55;;
67041;SDS011;53949;47.790;18.750;2022-07-23T17:04:27;8.10;;;7.30;;
67041;SDS011;53949;47.790;18.750;2022-07-23T18:14:54;8.15;;;7.35;;
67041;SDS011;53949;47.790;18.750;2022-07-23T18:23:19;14.75;;;7.40;;
67041;SDS011;53949;47.790;18.750;2022-07-23T18:44:47;14.25;;;8.02;;
67041;SDS011;53949;47.790;18.750;2022-07-23T18:48:16;12.43;;;8.27;;
67041;SDS011;53949;47.790;18.750;2022-07-23T18:51:30;8.48;;;7.60;;
67041;SDS011;53949;47.790;18.750;2022-07-23T18:54:40;9.50;;;7.32;;
67041;SDS011;53949;47.790;18.750;2022-07-23T18:57:43;7.87;;;7.15;;
67041;SDS011;53949;47.790;18.750;2022-07-23T19:00:47;9.43;;;7.72;;
67041;SDS011;53949;47.790;18.750;2022-07-23T19:03:53;11.95;;;7.80;;
67041;SDS011;53949;47.790;18.750;2022-07-23T19:06:56;8.90;;;8.00;;
67041;SDS011;53949;47.790;18.750;2022-07-23T19:10:00;9.47;;;7.73;;
67041;SDS011;53949;47.790;18.750;2022-07-23T19:13:03;8.88;;;7.78;;
67041;SDS011;53949;47.790;18.750;2022-07-23T19:16:07;9.63;;;7.37;;
67041;SDS011;53949;47.790;18.750;2022-07-23T19:19:11;9.40;;;7.70;;
67041;SDS011;53949;47.790;18.750;2022-07-23T19:22:14;10.18;;;8.02;;
67041;SDS011;53949;47.790;18.750;2022-07-23T19:25:18;9.77;;;8.67;;
67041;SDS011;53949;47.790;18.750;2022-07-23T19:28:21;11.77;;;9.02;;
67041;SDS011;53949;47.790;18.750;2022-07-23T19:31:24;12.10;;;8.73;;
67041;SDS011;53949;47.790;18.750;2022-07-23T19:37:33;9.63;;;8.52;;
67041;SDS011;53949;47.790;18.750;2022-07-23T19:40:38;11.82;;;9.32;;
67041;SDS011;53949;47.790;18.750;2022-07-23T19:43:41;9.37;;;8.40;;
67041;SDS011;53949;47.790;18.750;2022-07-23T19:46:44;10.43;;;8.35;;
67041;SDS011;53949;47.790;18.750;2022-07-23T19:49:48;12.98;;;9.13;;
67041;SDS011;53949;47.790;18.750;2022-07-23T19:52:51;12.47;;;8.33;;
67041;SDS011;53949;47.790;18.750;2022-07-23T19:55:58;11.88;;;8.00;;
67041;SDS011;53949;47.790;18.750;2022-07-23T19:59:01;12.55;;;8.50;;
67041;SDS011;53949;47.790;18.750;2022-07-23T20:02:05;11.57;;;8.15;;
67041;SDS011;53949;47.790;18.750;2022-07-23T20:05:09;13.47;;;8.50;;
67041;SDS011;53949;47.790;18.750;2022-07-23T20:08:13;10.18;;;8.95;;
67041;SDS011;53949;47.790;18.750;2022-07-23T20:11:20;11.60;;;8.65;;
67041;SDS011;53949;47.790;18.750;2022-07-23T20:14:23;10.30;;;8.90;;
67041;SDS011;53949;47.790;18.750;2022-07-23T20:17:28;9.90;;;8.52;;
67041;SDS011;53949;47.790;18.750;2022-07-23T20:20:31;14.98;;;8.63;;
67041;SDS011;53949;47.790;18.750;2022-07-23T20:23:34;8.95;;;8.10;;
67041;SDS011;53949;47.790;18.750;2022-07-23T20:26:38;9.18;;;8.13;;
67041;SDS011;53949;47.790;18.750;2022-07-23T20:29:42;12.68;;;8.55;;
67041;SDS011;53949;47.790;18.750;2022-07-23T20:32:45;13.13;;;8.87;;
67041;SDS011;53949;47.790;18.750;2022-07-23T20:35:49;10.53;;;8.57;;
67041;SDS011;53949;47.790;18.750;2022-07-23T20:38:53;12.93;;;9.02;;
67041;SDS011;53949;47.790;18.750;2022-07-23T20:41:56;9.63;;;8.67;;
67041;SDS011;53949;47.790;18.750;2022-07-23T20:44:59;14.45;;;8.65;;
67041;SDS011;53949;47.790;18.750;2022-07-23T20:48:02;9.93;;;8.73;;
67041;SDS011;53949;47.790;18.750;2022-07-23T20:51:05;11.27;;;8.98;;
67041;SDS011;53949;47.790;18.750;2022-07-23T20:54:08;10.15;;;8.48;;
67041;SDS011;53949;47.790;18.750;2022-07-23T20:57:11;15.10;;;8.27;;
67041;SDS011;53949;47.790;18.750;2022-07-23T21:00:15;9.35;;;8.43;;
67041;SDS011;53949;47.790;18.750;2022-07-23T21:03:19;10.30;;;8.52;;
67041;SDS011;53949;47.790;18.750;2022-07-23T21:06:23;10.30;;;8.63;;
67041;SDS011;53949;47.790;18.750;2022-07-23T21:09:27;11.10;;;8.52;;
67041;SDS011;53949;47.790;18.750;2022-07-23T21:12:31;12.32;;;8.15;;
67041;SDS011;53949;47.790;18.750;2022-07-23T21:15:34;10.88;;;8.73;;
67041;SDS011;53949;47.790;18.750;2022-07-23T21:21:42;11.68;;;8.38;;
67041;SDS011;53949;47.790;18.750;2022-07-23T21:24:45;9.87;;;8.80;;
67041;SDS011;53949;47.790;18.750;2022-07-23T21:27:48;10.25;;;8.18;;
67041;SDS011;53949;47.790;18.750;2022-07-23T21:30:51;9.90;;;8.90;;
67041;SDS011;53949;47.790;18.750;2022-07-23T21:33:55;9.98;;;8.48;;
67041;SDS011;53949;47.790;18.750;2022-07-23T21:36:58;10.60;;;9.45;;
67041;SDS011;53949;47.790;18.750;2022-07-23T21:40:01;11.65;;;9.30;;
67041;SDS011;53949;47.790;18.750;2022-07-23T21:43:05;10.55;;;8.52;;
67041;SDS011;53949;47.790;18.750;2022-07-23T21:46:08;11.35;;;8.88;;
67041;SDS011;53949;47.790;18.750;2022-07-23T21:49:11;11.48;;;9.00;;
67041;SDS011;53949;47.790;18.750;2022-07-23T21:52:15;9.73;;;8.68;;
67041;SDS011;53949;47.790;18.750;2022-07-23T21:55:18;13.93;;;8.80;;
67041;SDS011;53949;47.790;18.750;2022-07-23T21:58:21;10.43;;;8.80;;
67041;SDS011;53949;47.790;18.750;2022-07-23T22:01:24;11.47;;;9.20;;
67041;SDS011;53949;47.790;18.750;2022-07-23T22:04:28;11.30;;;9.33;;
67041;SDS011;53949;47.790;18.750;2022-07-23T22:07:31;13.73;;;8.77;;
67041;SDS011;53949;47.790;18.750;2022-07-23T22:10:34;12.63;;;8.73;;
67041;SDS011;53949;47.790;18.750;2022-07-23T22:16:42;10.63;;;8.95;;
67041;SDS011;53949;47.790;18.750;2022-07-23T22:19:45;13.23;;;10.35;;
67041;SDS011;53949;47.790;18.750;2022-07-23T22:22:48;11.52;;;10.32;;
67041;SDS011;53949;47.790;18.750;2022-07-23T22:28:55;10.38;;;9.38;;
67041;SDS011;53949;47.790;18.750;2022-07-23T22:31:58;13.90;;;9.85;;
67041;SDS011;53949;47.790;18.750;2022-07-23T22:35:02;11.25;;;9.25;;
67041;SDS011;53949;47.790;18.750;2022-07-23T22:38:07;14.55;;;8.73;;
67041;SDS011;53949;47.790;18.750;2022-07-23T22:41:11;10.98;;;9.38;;
67041;SDS011;53949;47.790;18.750;2022-07-23T22:44:14;10.98;;;9.88;;
67041;SDS011;53949;47.790;18.750;2022-07-23T22:47:20;10.07;;;9.07;;
67041;SDS011;53949;47.790;18.750;2022-07-23T22:50:25;13.07;;;9.25;;
67041;SDS011;53949;47.790;18.750;2022-07-23T22:53:29;13.38;;;8.50;;
67041;SDS011;53949;47.790;18.750;2022-07-23T22:56:32;10.38;;;8.68;;
67041;SDS011;53949;47.790;18.750;2022-07-23T22:59:36;11.17;;;9.50;;
67041;SDS011;53949;47.790;18.750;2022-07-23T23:02:40;10.80;;;9.05;;
67041;SDS011;53949;47.790;18.750;2022-07-23T23:05:45;12.23;;;9.57;;
67041;SDS011;53949;47.790;18.750;2022-07-23T23:08:48;10.23;;;9.23;;
67041;SDS011;53949;47.790;18.750;2022-07-23T23:11:51;10.18;;;9.13;;
67041;SDS011;53949;47.790;18.750;2022-07-23T23:14:55;11.97;;;9.67;;
67041;SDS011;53949;47.790;18.750;2022-07-23T23:17:59;12.65;;;9.57;;
67041;SDS011;53949;47.790;18.750;2022-07-23T23:21:02;11.20;;;9.60;;
67041;SDS011;53949;47.790;18.750;2022-07-23T23:24:06;14.00;;;9.73;;
67041;SDS011;53949;47.790;18.750;2022-07-23T23:27:10;12.77;;;9.25;;
67041;SDS011;53949;47.790;18.750;2022-07-23T23:30:14;13.27;;;10.43;;
67041;SDS011;53949;47.790;18.750;2022-07-23T23:33:17;12.52;;;10.80;;
67041;SDS011;53949;47.790;18.750;2022-07-23T23:36:20;10.88;;;9.80;;
67041;SDS011;53949;47.790;18.750;2022-07-23T23:39:24;14.95;;;9.35;;
67041;SDS011;53949;47.790;18.750;2022-07-23T23:42:28;10.80;;;8.98;;
67041;SDS011;53949;47.790;18.750;2022-07-23T23:45:31;11.80;;;8.75;;
67041;SDS011;53949;47.790;18.750;2022-07-23T23:48:34;13.18;;;9.43;;
67041;SDS011;53949;47.790;18.750;2022-07-23T23:51:39;12.43;;;9.55;;
67041;SDS011;53949;47.790;18.750;2022-07-23T23:54:44;12.68;;;9.90;;
67041;SDS011;53949;47.790;18.750;2022-07-23T23:57:47;19.20;;;10.52;;
